sensor_id;sensor_type;location;lat;lon;timestamp;temperature;humidity
68609;SHT31;55581;46.718;7.690;2022-11-04T00:01:55;8.39;94.68
68609;SHT31;55581;46.718;7.690;2022-11-04T00:04:22;8.42;94.34
68609;SHT31;55581;46.718;7.690;2022-11-04T00:06:48;8.44;93.18
68609;SHT31;55581;46.718;7.690;2022-11-04T00:09:19;8.47;93.35
68609;SHT31;55581;46.718;7.690;2022-11-04T00:11:47;8.54;93.89
68609;SHT31;55581;46.718;7.690;2022-11-04T00:14:32;8.61;93.75
68609;SHT31;55581;46.718;7.690;2022-11-04T00:17:00;8.74;90.35
68609;SHT31;55581;46.718;7.690;2022-11-04T00:19:55;8.75;91.21
68609;SHT31;55581;46.718;7.690;2022-11-04T00:22:40;8.70;90.27
68609;SHT31;55581;46.718;7.690;2022-11-04T00:25:25;8.64;89.95
68609;SHT31;55581;46.718;7.690;2022-11-04T00:28:10;8.64;90.25
68609;SHT31;55581;46.718;7.690;2022-11-04T00:30:56;8.56;89.98
68609;SHT31;55581;46.718;7.690;2022-11-04T00:33:22;8.61;90.18
68609;SHT31;55581;46.718;7.690;2022-11-04T00:35:53;8.59;86.42
68609;SHT31;55581;46.718;7.690;2022-11-04T00:38:19;8.61;88.09
68609;SHT31;55581;46.718;7.690;2022-11-04T00:40:45;8.43;88.30
68609;SHT31;55581;46.718;7.690;2022-11-04T00:43:10;8.43;86.48
68609;SHT31;55581;46.718;7.690;2022-11-04T00:45:40;8.44;88.28
68609;SHT31;55581;46.718;7.690;2022-11-04T00:48:05;8.32;89.60
68609;SHT31;55581;46.718;7.690;2022-11-04T00:50:30;8.13;90.21
68609;SHT31;55581;46.718;7.690;2022-11-04T00:53:00;7.98;91.17
68609;SHT31;55581;46.718;7.690;2022-11-04T00:55:26;8.05;90.52
68609;SHT31;55581;46.718;7.690;2022-11-04T00:57:52;8.12;92.07
68609;SHT31;55581;46.718;7.690;2022-11-04T01:00:17;8.12;91.55
68609;SHT31;55581;46.718;7.690;2022-11-04T01:02:44;8.10;91.68
68609;SHT31;55581;46.718;7.690;2022-11-04T01:05:12;8.06;91.64
68609;SHT31;55581;46.718;7.690;2022-11-04T01:07:41;8.06;90.88
68609;SHT31;55581;46.718;7.690;2022-11-04T01:10:07;8.12;92.33
68609;SHT31;55581;46.718;7.690;2022-11-04T01:12:34;8.19;91.98
68609;SHT31;55581;46.718;7.690;2022-11-04T01:14:59;8.16;91.95
68609;SHT31;55581;46.718;7.690;2022-11-04T01:17:25;8.25;89.77
68609;SHT31;55581;46.718;7.690;2022-11-04T01:19:50;8.40;86.58
68609;SHT31;55581;46.718;7.690;2022-11-04T01:22:20;8.52;84.42
68609;SHT31;55581;46.718;7.690;2022-11-04T01:24:46;8.36;88.90
68609;SHT31;55581;46.718;7.690;2022-11-04T01:27:12;8.30;90.73
68609;SHT31;55581;46.718;7.690;2022-11-04T01:29:37;8.25;89.80
68609;SHT31;55581;46.718;7.690;2022-11-04T01:32:07;8.34;86.67
68609;SHT31;55581;46.718;7.690;2022-11-04T01:34:33;8.50;84.33
68609;SHT31;55581;46.718;7.690;2022-11-04T01:37:01;8.56;83.90
68609;SHT31;55581;46.718;7.690;2022-11-04T01:39:26;8.64;82.27
68609;SHT31;55581;46.718;7.690;2022-11-04T01:41:52;8.63;86.01
68609;SHT31;55581;46.718;7.690;2022-11-04T01:44:50;8.50;86.77
68609;SHT31;55581;46.718;7.690;2022-11-04T01:50:19;8.32;88.51
68609;SHT31;55581;46.718;7.690;2022-11-04T01:52:51;8.29;88.41
68609;SHT31;55581;46.718;7.690;2022-11-04T01:55:22;8.15;90.10
68609;SHT31;55581;46.718;7.690;2022-11-04T01:57:54;8.02;90.20
68609;SHT31;55581;46.718;7.690;2022-11-04T02:00:20;7.97;89.61
68609;SHT31;55581;46.718;7.690;2022-11-04T02:02:53;7.91;91.27
68609;SHT31;55581;46.718;7.690;2022-11-04T02:05:21;7.92;91.18
68609;SHT31;55581;46.718;7.690;2022-11-04T02:07:54;7.89;91.85
68609;SHT31;55581;46.718;7.690;2022-11-04T02:10:24;7.89;92.24
68609;SHT31;55581;46.718;7.690;2022-11-04T02:12:50;7.88;90.87
68609;SHT31;55581;46.718;7.690;2022-11-04T02:18:20;7.70;92.05
68609;SHT31;55581;46.718;7.690;2022-11-04T02:29:46;7.63;92.04
68609;SHT31;55581;46.718;7.690;2022-11-04T02:38:18;7.61;92.84
68609;SHT31;55581;46.718;7.690;2022-11-04T02:41:02;7.56;91.92
68609;SHT31;55581;46.718;7.690;2022-11-04T02:46:26;7.53;91.52
68609;SHT31;55581;46.718;7.690;2022-11-04T02:49:19;7.51;92.72
68609;SHT31;55581;46.718;7.690;2022-11-04T02:51:58;7.50;92.26
68609;SHT31;55581;46.718;7.690;2022-11-04T02:57:03;7.54;91.54
68609;SHT31;55581;46.718;7.690;2022-11-04T03:02:09;7.59;92.25
68609;SHT31;55581;46.718;7.690;2022-11-04T03:04:45;7.59;92.77
68609;SHT31;55581;46.718;7.690;2022-11-04T03:07:14;7.70;92.56
68609;SHT31;55581;46.718;7.690;2022-11-04T03:09:43;7.70;92.04
68609;SHT31;55581;46.718;7.690;2022-11-04T03:12:12;7.68;92.69
68609;SHT31;55581;46.718;7.690;2022-11-04T03:14:51;7.73;92.22
68609;SHT31;55581;46.718;7.690;2022-11-04T03:18:05;7.77;92.13
68609;SHT31;55581;46.718;7.690;2022-11-04T03:20:29;7.74;93.33
68609;SHT31;55581;46.718;7.690;2022-11-04T03:22:57;7.70;92.76
68609;SHT31;55581;46.718;7.690;2022-11-04T03:25:48;7.79;91.96
68609;SHT31;55581;46.718;7.690;2022-11-04T03:28:34;7.94;87.55
68609;SHT31;55581;46.718;7.690;2022-11-04T03:31:03;7.98;90.16
68609;SHT31;55581;46.718;7.690;2022-11-04T03:36:02;8.02;87.80
68609;SHT31;55581;46.718;7.690;2022-11-04T03:38:29;8.15;86.70
68609;SHT31;55581;46.718;7.690;2022-11-04T03:40:54;8.28;85.04
68609;SHT31;55581;46.718;7.690;2022-11-04T03:43:24;8.37;84.80
68609;SHT31;55581;46.718;7.690;2022-11-04T03:45:53;8.40;85.01
68609;SHT31;55581;46.718;7.690;2022-11-04T03:48:18;8.43;85.98
68609;SHT31;55581;46.718;7.690;2022-11-04T03:50:47;8.39;85.94
68609;SHT31;55581;46.718;7.690;2022-11-04T03:53:16;8.33;86.55
68609;SHT31;55581;46.718;7.690;2022-11-04T04:01:06;8.42;85.16
68609;SHT31;55581;46.718;7.690;2022-11-04T04:03:41;8.44;84.26
68609;SHT31;55581;46.718;7.690;2022-11-04T04:06:15;8.46;83.59
68609;SHT31;55581;46.718;7.690;2022-11-04T04:08:43;8.47;83.75
68609;SHT31;55581;46.718;7.690;2022-11-04T04:11:17;8.43;84.56
68609;SHT31;55581;46.718;7.690;2022-11-04T04:16:38;8.26;86.16
68609;SHT31;55581;46.718;7.690;2022-11-04T04:19:13;8.23;87.82
68609;SHT31;55581;46.718;7.690;2022-11-04T04:21:44;8.13;87.66
68609;SHT31;55581;46.718;7.690;2022-11-04T04:24:14;8.12;88.38
68609;SHT31;55581;46.718;7.690;2022-11-04T04:27:00;7.98;89.84
68609;SHT31;55581;46.718;7.690;2022-11-04T04:29:45;7.99;90.01
68609;SHT31;55581;46.718;7.690;2022-11-04T04:32:12;7.91;89.97
68609;SHT31;55581;46.718;7.690;2022-11-04T04:34:38;7.88;91.74
68609;SHT31;55581;46.718;7.690;2022-11-04T04:37:25;7.73;91.61
68609;SHT31;55581;46.718;7.690;2022-11-04T04:39:54;7.67;92.41
68609;SHT31;55581;46.718;7.690;2022-11-04T04:42:39;7.61;92.50
68609;SHT31;55581;46.718;7.690;2022-11-04T04:45:37;7.60;91.49
68609;SHT31;55581;46.718;7.690;2022-11-04T04:48:09;7.54;93.33
68609;SHT31;55581;46.718;7.690;2022-11-04T04:50:39;7.59;93.16
68609;SHT31;55581;46.718;7.690;2022-11-04T04:53:05;7.57;92.55
68609;SHT31;55581;46.718;7.690;2022-11-04T04:55:32;7.60;91.45
68609;SHT31;55581;46.718;7.690;2022-11-04T04:57:57;7.66;89.72
68609;SHT31;55581;46.718;7.690;2022-11-04T05:00:24;7.70;89.28
68609;SHT31;55581;46.718;7.690;2022-11-04T05:02:49;7.68;89.80
68609;SHT31;55581;46.718;7.690;2022-11-04T05:05:15;7.59;90.71
68609;SHT31;55581;46.718;7.690;2022-11-04T05:07:41;7.53;90.60
68609;SHT31;55581;46.718;7.690;2022-11-04T05:10:13;7.43;91.04
68609;SHT31;55581;46.718;7.690;2022-11-04T05:12:39;7.43;90.85
68609;SHT31;55581;46.718;7.690;2022-11-04T05:15:25;7.39;90.61
68609;SHT31;55581;46.718;7.690;2022-11-04T05:17:55;7.30;91.36
68609;SHT31;55581;46.718;7.690;2022-11-04T05:20:21;7.26;91.42
68609;SHT31;55581;46.718;7.690;2022-11-04T05:22:48;7.18;91.62
68609;SHT31;55581;46.718;7.690;2022-11-04T05:25:14;7.16;91.92
68609;SHT31;55581;46.718;7.690;2022-11-04T05:27:42;7.16;92.45
68609;SHT31;55581;46.718;7.690;2022-11-04T05:30:08;7.19;91.81
68609;SHT31;55581;46.718;7.690;2022-11-04T05:32:33;7.30;90.71
68609;SHT31;55581;46.718;7.690;2022-11-04T05:34:59;7.40;89.39
68609;SHT31;55581;46.718;7.690;2022-11-04T05:37:25;7.40;91.06
68609;SHT31;55581;46.718;7.690;2022-11-04T05:39:51;7.47;87.99
68609;SHT31;55581;46.718;7.690;2022-11-04T05:42:16;7.54;86.60
68609;SHT31;55581;46.718;7.690;2022-11-04T05:44:44;7.61;86.99
68609;SHT31;55581;46.718;7.690;2022-11-04T05:47:12;7.59;87.95
68609;SHT31;55581;46.718;7.690;2022-11-04T05:49:37;7.59;89.43
68609;SHT31;55581;46.718;7.690;2022-11-04T05:52:04;7.47;89.80
68609;SHT31;55581;46.718;7.690;2022-11-04T05:54:30;7.39;90.29
68609;SHT31;55581;46.718;7.690;2022-11-04T05:56:55;7.33;90.91
68609;SHT31;55581;46.718;7.690;2022-11-04T05:59:23;7.24;91.63
68609;SHT31;55581;46.718;7.690;2022-11-04T06:01:48;7.20;91.76
68609;SHT31;55581;46.718;7.690;2022-11-04T06:04:16;7.24;91.94
68609;SHT31;55581;46.718;7.690;2022-11-04T06:06:42;7.22;91.74
68609;SHT31;55581;46.718;7.690;2022-11-04T06:09:08;7.32;91.84
68609;SHT31;55581;46.718;7.690;2022-11-04T06:11:34;7.34;90.92
68609;SHT31;55581;46.718;7.690;2022-11-04T06:13:59;7.34;91.35
68609;SHT31;55581;46.718;7.690;2022-11-04T06:16:25;7.37;91.21
68609;SHT31;55581;46.718;7.690;2022-11-04T06:18:51;7.42;91.62
68609;SHT31;55581;46.718;7.690;2022-11-04T06:21:18;7.40;91.21
68609;SHT31;55581;46.718;7.690;2022-11-04T06:23:46;7.42;90.75
68609;SHT31;55581;46.718;7.690;2022-11-04T06:26:13;7.53;89.99
68609;SHT31;55581;46.718;7.690;2022-11-04T06:28:39;7.64;89.32
68609;SHT31;55581;46.718;7.690;2022-11-04T06:31:08;7.75;88.18
68609;SHT31;55581;46.718;7.690;2022-11-04T06:33:34;7.82;87.96
68609;SHT31;55581;46.718;7.690;2022-11-04T06:36:03;7.82;88.41
68609;SHT31;55581;46.718;7.690;2022-11-04T06:38:31;7.78;88.33
68609;SHT31;55581;46.718;7.690;2022-11-04T06:41:00;7.75;89.16
68609;SHT31;55581;46.718;7.690;2022-11-04T06:43:25;7.75;88.74
68609;SHT31;55581;46.718;7.690;2022-11-04T06:45:58;7.73;88.95
68609;SHT31;55581;46.718;7.690;2022-11-04T06:48:25;7.70;88.11
68609;SHT31;55581;46.718;7.690;2022-11-04T06:50:50;7.66;88.88
68609;SHT31;55581;46.718;7.690;2022-11-04T06:53:16;7.67;89.83
68609;SHT31;55581;46.718;7.690;2022-11-04T06:55:42;7.59;90.06
68609;SHT31;55581;46.718;7.690;2022-11-04T06:58:08;7.53;90.99
68609;SHT31;55581;46.718;7.690;2022-11-04T07:00:33;7.61;90.86
68609;SHT31;55581;46.718;7.690;2022-11-04T07:02:59;7.71;90.49
68609;SHT31;55581;46.718;7.690;2022-11-04T07:05:24;7.77;89.93
68609;SHT31;55581;46.718;7.690;2022-11-04T07:07:50;7.94;89.45
68609;SHT31;55581;46.718;7.690;2022-11-04T07:10:15;7.95;90.08
68609;SHT31;55581;46.718;7.690;2022-11-04T07:12:41;7.97;91.05
68609;SHT31;55581;46.718;7.690;2022-11-04T07:15:07;8.09;90.37
68609;SHT31;55581;46.718;7.690;2022-11-04T07:17:35;8.17;89.73
68609;SHT31;55581;46.718;7.690;2022-11-04T07:20:01;8.26;89.66
68609;SHT31;55581;46.718;7.690;2022-11-04T07:22:27;8.40;87.75
68609;SHT31;55581;46.718;7.690;2022-11-04T07:24:52;8.57;87.79
68609;SHT31;55581;46.718;7.690;2022-11-04T07:27:19;8.74;87.07
68609;SHT31;55581;46.718;7.690;2022-11-04T07:29:44;8.92;86.47
68609;SHT31;55581;46.718;7.690;2022-11-04T07:32:12;8.91;86.73
68609;SHT31;55581;46.718;7.690;2022-11-04T07:34:37;8.98;87.50
68609;SHT31;55581;46.718;7.690;2022-11-04T07:37:05;9.16;85.40
68609;SHT31;55581;46.718;7.690;2022-11-04T07:39:30;9.25;85.50
68609;SHT31;55581;46.718;7.690;2022-11-04T07:41:55;9.42;84.88
68609;SHT31;55581;46.718;7.690;2022-11-04T07:44:21;9.48;85.18
68609;SHT31;55581;46.718;7.690;2022-11-04T07:46:47;9.51;83.39
68609;SHT31;55581;46.718;7.690;2022-11-04T07:49:13;9.63;80.49
68609;SHT31;55581;46.718;7.690;2022-11-04T07:51:39;9.63;80.21
68609;SHT31;55581;46.718;7.690;2022-11-04T07:54:06;9.63;80.24
68609;SHT31;55581;46.718;7.690;2022-11-04T07:56:31;9.54;81.15
68609;SHT31;55581;46.718;7.690;2022-11-04T07:58:56;9.47;82.30
68609;SHT31;55581;46.718;7.690;2022-11-04T08:01:22;9.37;82.89
68609;SHT31;55581;46.718;7.690;2022-11-04T08:03:49;9.29;83.85
68609;SHT31;55581;46.718;7.690;2022-11-04T08:06:16;9.33;82.93
68609;SHT31;55581;46.718;7.690;2022-11-04T08:08:42;9.37;83.65
68609;SHT31;55581;46.718;7.690;2022-11-04T08:11:14;9.48;83.29
68609;SHT31;55581;46.718;7.690;2022-11-04T08:13:39;9.46;81.19
68609;SHT31;55581;46.718;7.690;2022-11-04T08:16:10;9.57;80.31
68609;SHT31;55581;46.718;7.690;2022-11-04T08:18:37;9.54;80.72
68609;SHT31;55581;46.718;7.690;2022-11-04T08:21:04;9.48;83.72
68609;SHT31;55581;46.718;7.690;2022-11-04T08:23:33;9.44;84.27
68609;SHT31;55581;46.718;7.690;2022-11-04T08:25:59;9.48;83.84
68609;SHT31;55581;46.718;7.690;2022-11-04T08:28:25;9.57;84.04
68609;SHT31;55581;46.718;7.690;2022-11-04T08:30:58;9.67;83.59
68609;SHT31;55581;46.718;7.690;2022-11-04T08:33:27;9.88;82.99
68609;SHT31;55581;46.718;7.690;2022-11-04T08:35:58;9.92;82.57
68609;SHT31;55581;46.718;7.690;2022-11-04T08:38:23;10.06;82.43
68609;SHT31;55581;46.718;7.690;2022-11-04T08:40:49;10.28;82.41
68609;SHT31;55581;46.718;7.690;2022-11-04T08:43:15;10.47;84.21
68609;SHT31;55581;46.718;7.690;2022-11-04T08:45:42;10.63;83.19
68609;SHT31;55581;46.718;7.690;2022-11-04T08:48:09;10.70;79.33
68609;SHT31;55581;46.718;7.690;2022-11-04T08:50:34;10.46;81.53
68609;SHT31;55581;46.718;7.690;2022-11-04T08:53:00;10.49;82.38
68609;SHT31;55581;46.718;7.690;2022-11-04T08:55:28;10.39;81.97
68609;SHT31;55581;46.718;7.690;2022-11-04T08:57:53;10.32;81.58
68609;SHT31;55581;46.718;7.690;2022-11-04T09:00:19;10.30;79.95
68609;SHT31;55581;46.718;7.690;2022-11-04T09:02:45;10.33;80.55
68609;SHT31;55581;46.718;7.690;2022-11-04T09:05:12;10.36;79.20
68609;SHT31;55581;46.718;7.690;2022-11-04T09:07:39;10.33;79.05
68609;SHT31;55581;46.718;7.690;2022-11-04T09:10:05;10.30;78.74
68609;SHT31;55581;46.718;7.690;2022-11-04T09:12:31;10.40;79.39
68609;SHT31;55581;46.718;7.690;2022-11-04T09:14:56;10.45;78.44
68609;SHT31;55581;46.718;7.690;2022-11-04T09:17:21;10.45;77.87
68609;SHT31;55581;46.718;7.690;2022-11-04T09:19:47;10.37;78.59
68609;SHT31;55581;46.718;7.690;2022-11-04T09:22:13;10.39;79.35
68609;SHT31;55581;46.718;7.690;2022-11-04T09:24:39;10.29;82.07
68609;SHT31;55581;46.718;7.690;2022-11-04T09:27:07;10.23;84.13
68609;SHT31;55581;46.718;7.690;2022-11-04T09:29:33;10.29;81.76
68609;SHT31;55581;46.718;7.690;2022-11-04T09:32:01;10.29;82.11
68609;SHT31;55581;46.718;7.690;2022-11-04T09:34:26;10.22;83.23
68609;SHT31;55581;46.718;7.690;2022-11-04T09:36:54;10.37;83.16
68609;SHT31;55581;46.718;7.690;2022-11-04T09:39:22;10.46;82.55
68609;SHT31;55581;46.718;7.690;2022-11-04T09:47:10;10.80;79.87
68609;SHT31;55581;46.718;7.690;2022-11-04T09:49:40;10.78;80.60
68609;SHT31;55581;46.718;7.690;2022-11-04T09:52:23;10.83;82.06
68609;SHT31;55581;46.718;7.690;2022-11-04T09:55:16;10.88;81.24
68609;SHT31;55581;46.718;7.690;2022-11-04T09:57:45;10.88;81.11
68609;SHT31;55581;46.718;7.690;2022-11-04T10:00:15;10.87;80.45
68609;SHT31;55581;46.718;7.690;2022-11-04T10:05:21;10.94;79.81
68609;SHT31;55581;46.718;7.690;2022-11-04T10:19:01;11.14;77.45
68609;SHT31;55581;46.718;7.690;2022-11-04T10:27:08;11.32;75.39
68609;SHT31;55581;46.718;7.690;2022-11-04T10:32:14;11.28;74.23
68609;SHT31;55581;46.718;7.690;2022-11-04T10:34:45;11.23;74.06
68609;SHT31;55581;46.718;7.690;2022-11-04T10:37:12;11.25;74.58
68609;SHT31;55581;46.718;7.690;2022-11-04T10:39:44;11.23;75.41
68609;SHT31;55581;46.718;7.690;2022-11-04T10:42:17;11.29;74.65
68609;SHT31;55581;46.718;7.690;2022-11-04T10:44:47;11.26;74.23
68609;SHT31;55581;46.718;7.690;2022-11-04T10:52:38;11.44;75.00
68609;SHT31;55581;46.718;7.690;2022-11-04T10:55:17;11.39;73.51
68609;SHT31;55581;46.718;7.690;2022-11-04T10:57:46;11.30;73.54
68609;SHT31;55581;46.718;7.690;2022-11-04T11:00:37;11.44;74.77
68609;SHT31;55581;46.718;7.690;2022-11-04T11:05:46;11.67;75.52
68609;SHT31;55581;46.718;7.690;2022-11-04T11:08:27;11.56;75.09
68609;SHT31;55581;46.718;7.690;2022-11-04T11:10:53;11.62;73.89
68609;SHT31;55581;46.718;7.690;2022-11-04T11:13:27;11.56;73.04
68609;SHT31;55581;46.718;7.690;2022-11-04T11:16:11;11.66;73.40
68609;SHT31;55581;46.718;7.690;2022-11-04T11:18:38;11.65;73.58
68609;SHT31;55581;46.718;7.690;2022-11-04T11:26:03;11.81;72.50
68609;SHT31;55581;46.718;7.690;2022-11-04T11:28:30;11.80;71.63
68609;SHT31;55581;46.718;7.690;2022-11-04T11:31:07;11.98;73.48
68609;SHT31;55581;46.718;7.690;2022-11-04T11:33:39;11.84;70.49
68609;SHT31;55581;46.718;7.690;2022-11-04T11:36:09;12.05;71.85
68609;SHT31;55581;46.718;7.690;2022-11-04T11:38:53;12.06;70.22
68609;SHT31;55581;46.718;7.690;2022-11-04T11:41:20;12.06;70.47
68609;SHT31;55581;46.718;7.690;2022-11-04T11:43:54;12.14;69.95
68609;SHT31;55581;46.718;7.690;2022-11-04T11:46:28;12.15;70.76
68609;SHT31;55581;46.718;7.690;2022-11-04T11:49:00;12.17;71.78
68609;SHT31;55581;46.718;7.690;2022-11-04T11:51:36;12.06;70.64
68609;SHT31;55581;46.718;7.690;2022-11-04T11:56:34;12.05;70.97
68609;SHT31;55581;46.718;7.690;2022-11-04T11:59:14;11.99;70.62
68609;SHT31;55581;46.718;7.690;2022-11-04T12:04:26;11.90;70.89
68609;SHT31;55581;46.718;7.690;2022-11-04T12:09:29;11.67;72.52
68609;SHT31;55581;46.718;7.690;2022-11-04T12:15:01;11.80;73.00
68609;SHT31;55581;46.718;7.690;2022-11-04T12:17:46;11.67;73.27
68609;SHT31;55581;46.718;7.690;2022-11-04T12:23:19;11.49;73.62
68609;SHT31;55581;46.718;7.690;2022-11-04T12:34:10;11.33;72.44
68609;SHT31;55581;46.718;7.690;2022-11-04T12:42:39;11.36;72.21
68609;SHT31;55581;46.718;7.690;2022-11-04T12:45:47;11.44;71.51
68609;SHT31;55581;46.718;7.690;2022-11-04T12:56:42;11.55;72.97
68609;SHT31;55581;46.718;7.690;2022-11-04T12:59:33;11.59;73.32
68609;SHT31;55581;46.718;7.690;2022-11-04T13:04:48;11.53;73.76
68609;SHT31;55581;46.718;7.690;2022-11-04T13:07:24;11.63;72.98
68609;SHT31;55581;46.718;7.690;2022-11-04T13:09:55;11.47;72.02
68609;SHT31;55581;46.718;7.690;2022-11-04T13:12:28;11.35;72.11
68609;SHT31;55581;46.718;7.690;2022-11-04T13:17:31;11.44;73.02
68609;SHT31;55581;46.718;7.690;2022-11-04T13:20:02;11.42;73.27
68609;SHT31;55581;46.718;7.690;2022-11-04T13:22:33;11.33;74.28
68609;SHT31;55581;46.718;7.690;2022-11-04T13:25:13;11.44;74.63
68609;SHT31;55581;46.718;7.690;2022-11-04T13:27:45;11.47;74.49
68609;SHT31;55581;46.718;7.690;2022-11-04T13:38:33;11.42;72.36
68609;SHT31;55581;46.718;7.690;2022-11-04T13:41:31;11.40;73.23
68609;SHT31;55581;46.718;7.690;2022-11-04T13:44:02;11.26;73.17
68609;SHT31;55581;46.718;7.690;2022-11-04T13:46:32;11.22;72.86
68609;SHT31;55581;46.718;7.690;2022-11-04T13:49:06;11.25;74.50
68609;SHT31;55581;46.718;7.690;2022-11-04T13:51:41;11.19;74.68
68609;SHT31;55581;46.718;7.690;2022-11-04T13:57:05;11.18;74.91
68609;SHT31;55581;46.718;7.690;2022-11-04T13:59:34;11.12;74.88
68609;SHT31;55581;46.718;7.690;2022-11-04T14:04:35;11.00;75.74
68609;SHT31;55581;46.718;7.690;2022-11-04T14:07:03;10.94;76.41
68609;SHT31;55581;46.718;7.690;2022-11-04T14:25:18;10.83;77.02
68609;SHT31;55581;46.718;7.690;2022-11-04T14:27:46;10.80;77.51
68609;SHT31;55581;46.718;7.690;2022-11-04T14:33:06;10.63;78.31
68609;SHT31;55581;46.718;7.690;2022-11-04T14:35:33;10.60;78.75
68609;SHT31;55581;46.718;7.690;2022-11-04T14:38:05;10.50;78.72
68609;SHT31;55581;46.718;7.690;2022-11-04T14:43:42;10.29;78.19
68609;SHT31;55581;46.718;7.690;2022-11-04T14:46:11;10.20;79.02
68609;SHT31;55581;46.718;7.690;2022-11-04T14:48:42;9.92;79.27
68609;SHT31;55581;46.718;7.690;2022-11-04T14:51:27;9.75;80.31
68609;SHT31;55581;46.718;7.690;2022-11-04T14:54:03;9.57;80.36
68609;SHT31;55581;46.718;7.690;2022-11-04T14:56:29;9.37;84.65
68609;SHT31;55581;46.718;7.690;2022-11-04T15:01:25;9.04;83.95
68609;SHT31;55581;46.718;7.690;2022-11-04T15:03:51;8.89;83.86
68609;SHT31;55581;46.718;7.690;2022-11-04T15:06:28;8.74;84.33
68609;SHT31;55581;46.718;7.690;2022-11-04T15:08:54;8.52;83.94
68609;SHT31;55581;46.718;7.690;2022-11-04T15:11:29;8.26;84.73
68609;SHT31;55581;46.718;7.690;2022-11-04T15:14:24;8.06;85.09
68609;SHT31;55581;46.718;7.690;2022-11-04T15:16:57;7.91;84.97
68609;SHT31;55581;46.718;7.690;2022-11-04T15:19:29;7.84;85.98
68609;SHT31;55581;46.718;7.690;2022-11-04T15:21:55;7.84;86.78
68609;SHT31;55581;46.718;7.690;2022-11-04T15:24:21;7.84;86.02
68609;SHT31;55581;46.718;7.690;2022-11-04T15:26:51;7.68;84.31
68609;SHT31;55581;46.718;7.690;2022-11-04T15:29:18;7.78;87.21
68609;SHT31;55581;46.718;7.690;2022-11-04T15:32:03;7.74;83.90
68609;SHT31;55581;46.718;7.690;2022-11-04T15:34:31;7.73;85.65
68609;SHT31;55581;46.718;7.690;2022-11-04T15:37:00;7.71;86.38
68609;SHT31;55581;46.718;7.690;2022-11-04T15:39:34;7.66;83.93
68609;SHT31;55581;46.718;7.690;2022-11-04T15:42:03;7.61;86.58
68609;SHT31;55581;46.718;7.690;2022-11-04T15:44:52;7.68;86.82
68609;SHT31;55581;46.718;7.690;2022-11-04T15:47:25;7.68;84.95
68609;SHT31;55581;46.718;7.690;2022-11-04T15:49:53;7.67;87.38
68609;SHT31;55581;46.718;7.690;2022-11-04T15:52:28;7.70;87.96
68609;SHT31;55581;46.718;7.690;2022-11-04T15:54:58;7.73;88.27
68609;SHT31;55581;46.718;7.690;2022-11-04T15:57:33;7.67;88.69
68609;SHT31;55581;46.718;7.690;2022-11-04T16:00:04;7.73;89.24
68609;SHT31;55581;46.718;7.690;2022-11-04T16:02:38;7.70;88.03
68609;SHT31;55581;46.718;7.690;2022-11-04T16:07:38;7.61;85.36
68609;SHT31;55581;46.718;7.690;2022-11-04T16:10:26;7.61;83.67
68609;SHT31;55581;46.718;7.690;2022-11-04T16:15:42;7.68;89.55
68609;SHT31;55581;46.718;7.690;2022-11-04T16:20:51;7.68;88.85
68609;SHT31;55581;46.718;7.690;2022-11-04T16:23:23;7.64;88.55
68609;SHT31;55581;46.718;7.690;2022-11-04T16:26:02;7.60;88.01
68609;SHT31;55581;46.718;7.690;2022-11-04T16:28:36;7.59;89.20
68609;SHT31;55581;46.718;7.690;2022-11-04T16:31:25;7.57;89.17
68609;SHT31;55581;46.718;7.690;2022-11-04T16:33:50;7.56;89.52
68609;SHT31;55581;46.718;7.690;2022-11-04T16:36:16;7.56;90.29
68609;SHT31;55581;46.718;7.690;2022-11-04T16:39:00;7.60;89.60
68609;SHT31;55581;46.718;7.690;2022-11-04T16:41:36;7.54;89.28
68609;SHT31;55581;46.718;7.690;2022-11-04T16:44:03;7.51;89.31
68609;SHT31;55581;46.718;7.690;2022-11-04T16:46:31;7.50;90.33
68609;SHT31;55581;46.718;7.690;2022-11-04T16:48:58;7.49;89.72
68609;SHT31;55581;46.718;7.690;2022-11-04T16:51:24;7.42;88.04
68609;SHT31;55581;46.718;7.690;2022-11-04T16:53:51;7.29;87.98
68609;SHT31;55581;46.718;7.690;2022-11-04T16:56:19;7.42;88.90
68609;SHT31;55581;46.718;7.690;2022-11-04T16:58:46;7.37;89.01
68609;SHT31;55581;46.718;7.690;2022-11-04T17:01:12;7.32;90.73
68609;SHT31;55581;46.718;7.690;2022-11-04T17:03:42;7.19;89.58
68609;SHT31;55581;46.718;7.690;2022-11-04T17:06:08;7.04;89.79
68609;SHT31;55581;46.718;7.690;2022-11-04T17:08:36;7.06;91.26
68609;SHT31;55581;46.718;7.690;2022-11-04T17:11:03;6.96;90.17
68609;SHT31;55581;46.718;7.690;2022-11-04T17:13:28;6.91;90.33
68609;SHT31;55581;46.718;7.690;2022-11-04T17:15:54;6.87;90.63
68609;SHT31;55581;46.718;7.690;2022-11-04T17:18:22;6.88;90.96
68609;SHT31;55581;46.718;7.690;2022-11-04T17:20:52;6.81;91.45
68609;SHT31;55581;46.718;7.690;2022-11-04T17:23:19;6.87;91.22
68609;SHT31;55581;46.718;7.690;2022-11-04T17:25:47;6.81;91.07
68609;SHT31;55581;46.718;7.690;2022-11-04T17:28:15;6.80;91.47
68609;SHT31;55581;46.718;7.690;2022-11-04T17:30:42;6.88;92.50
68609;SHT31;55581;46.718;7.690;2022-11-04T17:33:15;6.87;91.53
68609;SHT31;55581;46.718;7.690;2022-11-04T17:35:45;6.94;90.97
68609;SHT31;55581;46.718;7.690;2022-11-04T17:38:12;6.98;90.79
68609;SHT31;55581;46.718;7.690;2022-11-04T17:40:39;6.96;90.80
68609;SHT31;55581;46.718;7.690;2022-11-04T17:43:23;6.94;90.09
68609;SHT31;55581;46.718;7.690;2022-11-04T17:46:08;6.85;91.38
68609;SHT31;55581;46.718;7.690;2022-11-04T17:48:52;6.80;91.67
68609;SHT31;55581;46.718;7.690;2022-11-04T17:51:19;6.80;91.31
68609;SHT31;55581;46.718;7.690;2022-11-04T17:53:48;6.78;90.95
68609;SHT31;55581;46.718;7.690;2022-11-04T17:56:19;6.77;92.37
68609;SHT31;55581;46.718;7.690;2022-11-04T17:58:46;6.77;92.63
68609;SHT31;55581;46.718;7.690;2022-11-04T18:01:13;6.80;92.72
68609;SHT31;55581;46.718;7.690;2022-11-04T18:03:41;6.74;92.50
68609;SHT31;55581;46.718;7.690;2022-11-04T18:06:07;6.77;93.55
68609;SHT31;55581;46.718;7.690;2022-11-04T18:08:33;6.73;92.87
68609;SHT31;55581;46.718;7.690;2022-11-04T18:11:00;6.80;92.73
68609;SHT31;55581;46.718;7.690;2022-11-04T18:13:26;6.84;93.53
68609;SHT31;55581;46.718;7.690;2022-11-04T18:15:54;6.89;93.04
68609;SHT31;55581;46.718;7.690;2022-11-04T18:18:21;6.91;93.79
68609;SHT31;55581;46.718;7.690;2022-11-04T18:20:47;6.91;92.82
68609;SHT31;55581;46.718;7.690;2022-11-04T18:23:12;6.94;92.71
68609;SHT31;55581;46.718;7.690;2022-11-04T18:25:39;6.85;93.12
68609;SHT31;55581;46.718;7.690;2022-11-04T18:28:08;6.91;93.07
68609;SHT31;55581;46.718;7.690;2022-11-04T18:30:33;6.91;93.01
68609;SHT31;55581;46.718;7.690;2022-11-04T18:33:00;6.85;93.92
68609;SHT31;55581;46.718;7.690;2022-11-04T18:35:26;6.88;93.92
68609;SHT31;55581;46.718;7.690;2022-11-04T18:37:51;6.85;93.64
68609;SHT31;55581;46.718;7.690;2022-11-04T18:40:16;6.87;92.82
68609;SHT31;55581;46.718;7.690;2022-11-04T18:42:42;6.91;93.26
68609;SHT31;55581;46.718;7.690;2022-11-04T18:45:08;6.98;93.23
68609;SHT31;55581;46.718;7.690;2022-11-04T18:47:34;7.02;93.53
68609;SHT31;55581;46.718;7.690;2022-11-04T18:49:59;7.05;93.02